sensor_id;sensor_type;location;lat;lon;timestamp;pressure;altitude;pressure_sealevel;temperature
29423;BMP180;16399;51.686;8.684;2023-01-30T00:00:21;99998.00;;;3.40
29423;BMP180;16399;51.686;8.684;2023-01-30T00:03:24;99991.00;;;3.40
29423;BMP180;16399;51.686;8.684;2023-01-30T00:06:27;99979.00;;;3.40
29423;BMP180;16399;51.686;8.684;2023-01-30T00:09:29;99974.00;;;3.40
29423;BMP180;16399;51.686;8.684;2023-01-30T00:12:31;99972.00;;;3.40
29423;BMP180;16399;51.686;8.684;2023-01-30T00:15:34;99963.00;;;3.50
29423;BMP180;16399;51.686;8.684;2023-01-30T00:18:38;99930.00;;;3.50
29423;BMP180;16399;51.686;8.684;2023-01-30T00:21:40;99927.00;;;3.50
29423;BMP180;16399;51.686;8.684;2023-01-30T00:24:43;99941.00;;;3.40
29423;BMP180;16399;51.686;8.684;2023-01-30T00:27:45;99950.00;;;3.50
29423;BMP180;16399;51.686;8.684;2023-01-30T00:30:51;99950.00;;;3.50
29423;BMP180;16399;51.686;8.684;2023-01-30T00:33:54;99955.00;;;3.50
29423;BMP180;16399;51.686;8.684;2023-01-30T00:36:56;99939.00;;;3.50
29423;BMP180;16399;51.686;8.684;2023-01-30T00:39:58;99938.00;;;3.50
29423;BMP180;16399;51.686;8.684;2023-01-30T00:43:01;99932.00;;;3.50
29423;BMP180;16399;51.686;8.684;2023-01-30T00:46:28;99934.00;;;3.60
29423;BMP180;16399;51.686;8.684;2023-01-30T00:49:47;99912.00;;;3.60
29423;BMP180;16399;51.686;8.684;2023-01-30T00:52:49;99903.00;;;3.60
29423;BMP180;16399;51.686;8.684;2023-01-30T00:55:52;99886.00;;;3.60
29423;BMP180;16399;51.686;8.684;2023-01-30T00:58:55;99893.00;;;3.60
29423;BMP180;16399;51.686;8.684;2023-01-30T01:01:57;99892.00;;;3.60
29423;BMP180;16399;51.686;8.684;2023-01-30T01:05:00;99881.00;;;3.70
29423;BMP180;16399;51.686;8.684;2023-01-30T01:08:02;99868.00;;;3.70
29423;BMP180;16399;51.686;8.684;2023-01-30T01:11:04;99859.00;;;3.70
29423;BMP180;16399;51.686;8.684;2023-01-30T01:14:07;99857.00;;;3.70
29423;BMP180;16399;51.686;8.684;2023-01-30T01:17:09;99858.00;;;3.70
29423;BMP180;16399;51.686;8.684;2023-01-30T01:20:12;99855.00;;;3.70
29423;BMP180;16399;51.686;8.684;2023-01-30T01:23:14;99845.00;;;3.80
29423;BMP180;16399;51.686;8.684;2023-01-30T01:26:16;99847.00;;;3.80
29423;BMP180;16399;51.686;8.684;2023-01-30T01:29:19;99832.00;;;3.90
29423;BMP180;16399;51.686;8.684;2023-01-30T01:32:21;99822.00;;;3.80
29423;BMP180;16399;51.686;8.684;2023-01-30T01:35:23;99809.00;;;3.90
29423;BMP180;16399;51.686;8.684;2023-01-30T01:38:26;99799.00;;;3.90
29423;BMP180;16399;51.686;8.684;2023-01-30T01:41:28;99786.00;;;3.90
29423;BMP180;16399;51.686;8.684;2023-01-30T01:44:54;99779.00;;;3.90
29423;BMP180;16399;51.686;8.684;2023-01-30T01:48:21;99769.00;;;3.90
29423;BMP180;16399;51.686;8.684;2023-01-30T01:50:50;99768.00;;;3.90
29423;BMP180;16399;51.686;8.684;2023-01-30T01:54:01;99765.00;;;3.90
29423;BMP180;16399;51.686;8.684;2023-01-30T01:57:03;99754.00;;;3.90
29423;BMP180;16399;51.686;8.684;2023-01-30T02:00:15;99759.00;;;3.80
29423;BMP180;16399;51.686;8.684;2023-01-30T02:03:20;99752.00;;;3.80
29423;BMP180;16399;51.686;8.684;2023-01-30T02:06:23;99741.00;;;3.90
29423;BMP180;16399;51.686;8.684;2023-01-30T02:09:25;99742.00;;;3.90
29423;BMP180;16399;51.686;8.684;2023-01-30T02:12:28;99734.00;;;3.90
29423;BMP180;16399;51.686;8.684;2023-01-30T02:15:30;99720.00;;;3.90
29423;BMP180;16399;51.686;8.684;2023-01-30T02:18:35;99729.00;;;4.00
29423;BMP180;16399;51.686;8.684;2023-01-30T02:22:14;99708.00;;;4.00
29423;BMP180;16399;51.686;8.684;2023-01-30T02:32:13;99699.00;;;4.10
29423;BMP180;16399;51.686;8.684;2023-01-30T02:42:17;99685.00;;;4.10
29423;BMP180;16399;51.686;8.684;2023-01-30T02:45:28;99666.00;;;4.00
29423;BMP180;16399;51.686;8.684;2023-01-30T02:48:29;99672.00;;;4.00
29423;BMP180;16399;51.686;8.684;2023-01-30T02:51:34;99664.00;;;4.10
29423;BMP180;16399;51.686;8.684;2023-01-30T02:54:37;99649.00;;;4.10
29423;BMP180;16399;51.686;8.684;2023-01-30T02:57:39;99664.00;;;4.20
29423;BMP180;16399;51.686;8.684;2023-01-30T03:07:49;99649.00;;;4.30
29423;BMP180;16399;51.686;8.684;2023-01-30T03:11:03;99645.00;;;4.30
29423;BMP180;16399;51.686;8.684;2023-01-30T03:14:18;99620.00;;;4.30
29423;BMP180;16399;51.686;8.684;2023-01-30T03:17:22;99617.00;;;4.40
29423;BMP180;16399;51.686;8.684;2023-01-30T03:20:27;99615.00;;;4.40
29423;BMP180;16399;51.686;8.684;2023-01-30T03:23:29;99610.00;;;4.40
29423;BMP180;16399;51.686;8.684;2023-01-30T03:26:33;99602.00;;;4.40
29423;BMP180;16399;51.686;8.684;2023-01-30T03:29:38;99601.00;;;4.50
29423;BMP180;16399;51.686;8.684;2023-01-30T03:32:40;99591.00;;;4.50
29423;BMP180;16399;51.686;8.684;2023-01-30T03:35:42;99587.00;;;4.50
29423;BMP180;16399;51.686;8.684;2023-01-30T03:38:45;99580.00;;;4.50
29423;BMP180;16399;51.686;8.684;2023-01-30T03:41:47;99593.00;;;4.50
29423;BMP180;16399;51.686;8.684;2023-01-30T03:44:49;99599.00;;;4.50
29423;BMP180;16399;51.686;8.684;2023-01-30T03:47:51;99590.00;;;4.60
29423;BMP180;16399;51.686;8.684;2023-01-30T03:50:54;99561.00;;;4.60
29423;BMP180;16399;51.686;8.684;2023-01-30T03:53:56;99561.00;;;4.60
29423;BMP180;16399;51.686;8.684;2023-01-30T03:56:58;99554.00;;;4.60
29423;BMP180;16399;51.686;8.684;2023-01-30T04:00:01;99573.00;;;4.70
29423;BMP180;16399;51.686;8.684;2023-01-30T04:03:04;99548.00;;;4.70
29423;BMP180;16399;51.686;8.684;2023-01-30T04:06:07;99548.00;;;4.70
29423;BMP180;16399;51.686;8.684;2023-01-30T04:09:10;99547.00;;;4.80
29423;BMP180;16399;51.686;8.684;2023-01-30T04:12:12;99545.00;;;4.80
29423;BMP180;16399;51.686;8.684;2023-01-30T04:15:14;99548.00;;;4.80
29423;BMP180;16399;51.686;8.684;2023-01-30T04:18:17;99531.00;;;4.90
29423;BMP180;16399;51.686;8.684;2023-01-30T04:21:19;99531.00;;;4.90
29423;BMP180;16399;51.686;8.684;2023-01-30T04:24:22;99528.00;;;4.90
29423;BMP180;16399;51.686;8.684;2023-01-30T04:27:24;99522.00;;;4.90
29423;BMP180;16399;51.686;8.684;2023-01-30T04:30:26;99529.00;;;4.90
29423;BMP180;16399;51.686;8.684;2023-01-30T04:33:29;99507.00;;;4.90
29423;BMP180;16399;51.686;8.684;2023-01-30T04:36:31;99509.00;;;4.90
29423;BMP180;16399;51.686;8.684;2023-01-30T04:39:33;99504.00;;;4.90
29423;BMP180;16399;51.686;8.684;2023-01-30T04:42:36;99520.00;;;4.90
29423;BMP180;16399;51.686;8.684;2023-01-30T04:45:42;99515.00;;;4.90
29423;BMP180;16399;51.686;8.684;2023-01-30T04:48:44;99527.00;;;4.90
29423;BMP180;16399;51.686;8.684;2023-01-30T04:51:47;99522.00;;;4.80
29423;BMP180;16399;51.686;8.684;2023-01-30T04:54:49;99537.00;;;4.80
29423;BMP180;16399;51.686;8.684;2023-01-30T04:57:51;99516.00;;;4.80
29423;BMP180;16399;51.686;8.684;2023-01-30T05:00:54;99511.00;;;4.80
29423;BMP180;16399;51.686;8.684;2023-01-30T05:03:56;99504.00;;;4.80
29423;BMP180;16399;51.686;8.684;2023-01-30T05:06:58;99493.00;;;4.80
29423;BMP180;16399;51.686;8.684;2023-01-30T05:10:01;99490.00;;;4.80
29423;BMP180;16399;51.686;8.684;2023-01-30T05:13:04;99493.00;;;4.80
29423;BMP180;16399;51.686;8.684;2023-01-30T05:16:06;99501.00;;;4.80
29423;BMP180;16399;51.686;8.684;2023-01-30T05:19:10;99488.00;;;4.80
29423;BMP180;16399;51.686;8.684;2023-01-30T05:22:14;99498.00;;;4.80
29423;BMP180;16399;51.686;8.684;2023-01-30T05:25:16;99485.00;;;4.80
29423;BMP180;16399;51.686;8.684;2023-01-30T05:28:18;99494.00;;;4.80
29423;BMP180;16399;51.686;8.684;2023-01-30T05:31:21;99487.00;;;4.80
29423;BMP180;16399;51.686;8.684;2023-01-30T05:34:23;99478.00;;;4.80
29423;BMP180;16399;51.686;8.684;2023-01-30T05:37:25;99464.00;;;4.80
29423;BMP180;16399;51.686;8.684;2023-01-30T05:40:27;99485.00;;;4.80
29423;BMP180;16399;51.686;8.684;2023-01-30T05:43:30;99473.00;;;4.80
29423;BMP180;16399;51.686;8.684;2023-01-30T05:46:33;99472.00;;;4.80
29423;BMP180;16399;51.686;8.684;2023-01-30T05:49:35;99462.00;;;4.90
29423;BMP180;16399;51.686;8.684;2023-01-30T05:52:38;99473.00;;;4.90
29423;BMP180;16399;51.686;8.684;2023-01-30T05:55:40;99484.00;;;4.90
29423;BMP180;16399;51.686;8.684;2023-01-30T05:58:49;99469.00;;;4.90
29423;BMP180;16399;51.686;8.684;2023-01-30T06:01:51;99465.00;;;4.90
29423;BMP180;16399;51.686;8.684;2023-01-30T06:04:53;99470.00;;;4.90
29423;BMP180;16399;51.686;8.684;2023-01-30T06:07:56;99462.00;;;4.90
29423;BMP180;16399;51.686;8.684;2023-01-30T06:11:10;99465.00;;;5.00
29423;BMP180;16399;51.686;8.684;2023-01-30T06:14:09;99473.00;;;5.00
29423;BMP180;16399;51.686;8.684;2023-01-30T06:17:11;99466.00;;;5.00
29423;BMP180;16399;51.686;8.684;2023-01-30T06:20:15;99464.00;;;5.00
29423;BMP180;16399;51.686;8.684;2023-01-30T06:23:19;99476.00;;;5.00
29423;BMP180;16399;51.686;8.684;2023-01-30T06:26:21;99470.00;;;5.00
29423;BMP180;16399;51.686;8.684;2023-01-30T06:29:23;99485.00;;;5.10
29423;BMP180;16399;51.686;8.684;2023-01-30T06:32:26;99480.00;;;5.10
29423;BMP180;16399;51.686;8.684;2023-01-30T06:35:28;99479.00;;;5.10
29423;BMP180;16399;51.686;8.684;2023-01-30T06:38:30;99476.00;;;5.10
29423;BMP180;16399;51.686;8.684;2023-01-30T06:41:33;99490.00;;;5.10
29423;BMP180;16399;51.686;8.684;2023-01-30T06:44:35;99486.00;;;5.10
29423;BMP180;16399;51.686;8.684;2023-01-30T06:47:53;99489.00;;;5.10
29423;BMP180;16399;51.686;8.684;2023-01-30T06:50:48;99496.00;;;5.10
29423;BMP180;16399;51.686;8.684;2023-01-30T06:53:50;99507.00;;;5.20
29423;BMP180;16399;51.686;8.684;2023-01-30T06:56:53;99481.00;;;5.20
29423;BMP180;16399;51.686;8.684;2023-01-30T06:59:55;99505.00;;;5.20
29423;BMP180;16399;51.686;8.684;2023-01-30T07:02:57;99490.00;;;5.20
29423;BMP180;16399;51.686;8.684;2023-01-30T07:06:00;99512.00;;;5.20
29423;BMP180;16399;51.686;8.684;2023-01-30T07:09:02;99494.00;;;5.20
29423;BMP180;16399;51.686;8.684;2023-01-30T07:12:04;99500.00;;;5.30
29423;BMP180;16399;51.686;8.684;2023-01-30T07:15:07;99528.00;;;5.20
29423;BMP180;16399;51.686;8.684;2023-01-30T07:18:09;99546.00;;;4.80
29423;BMP180;16399;51.686;8.684;2023-01-30T07:21:12;99553.00;;;4.30
29423;BMP180;16399;51.686;8.684;2023-01-30T07:24:14;99550.00;;;3.90
29423;BMP180;16399;51.686;8.684;2023-01-30T07:27:16;99549.00;;;3.70
29423;BMP180;16399;51.686;8.684;2023-01-30T07:30:19;99549.00;;;3.50
29423;BMP180;16399;51.686;8.684;2023-01-30T07:33:21;99556.00;;;3.40
29423;BMP180;16399;51.686;8.684;2023-01-30T07:36:23;99557.00;;;3.40
29423;BMP180;16399;51.686;8.684;2023-01-30T07:39:26;99548.00;;;3.40
29423;BMP180;16399;51.686;8.684;2023-01-30T07:42:28;99547.00;;;3.40
29423;BMP180;16399;51.686;8.684;2023-01-30T07:45:45;99547.00;;;3.50
29423;BMP180;16399;51.686;8.684;2023-01-30T07:48:47;99537.00;;;3.50
29423;BMP180;16399;51.686;8.684;2023-01-30T07:51:49;99545.00;;;3.60
29423;BMP180;16399;51.686;8.684;2023-01-30T07:54:52;99537.00;;;3.70
29423;BMP180;16399;51.686;8.684;2023-01-30T07:57:54;99547.00;;;3.80
29423;BMP180;16399;51.686;8.684;2023-01-30T08:00:56;99554.00;;;3.90
29423;BMP180;16399;51.686;8.684;2023-01-30T08:03:59;99562.00;;;3.90
29423;BMP180;16399;51.686;8.684;2023-01-30T08:07:01;99565.00;;;4.00
29423;BMP180;16399;51.686;8.684;2023-01-30T08:10:04;99543.00;;;4.00
29423;BMP180;16399;51.686;8.684;2023-01-30T08:13:07;99534.00;;;4.10
29423;BMP180;16399;51.686;8.684;2023-01-30T08:16:09;99537.00;;;4.10
29423;BMP180;16399;51.686;8.684;2023-01-30T08:19:11;99553.00;;;4.20
29423;BMP180;16399;51.686;8.684;2023-01-30T08:22:14;99555.00;;;4.30
29423;BMP180;16399;51.686;8.684;2023-01-30T08:25:16;99554.00;;;4.30
29423;BMP180;16399;51.686;8.684;2023-01-30T08:28:18;99563.00;;;4.40
29423;BMP180;16399;51.686;8.684;2023-01-30T08:31:21;99569.00;;;4.40
29423;BMP180;16399;51.686;8.684;2023-01-30T08:34:24;99567.00;;;4.50
29423;BMP180;16399;51.686;8.684;2023-01-30T08:37:26;99569.00;;;4.50
29423;BMP180;16399;51.686;8.684;2023-01-30T08:40:28;99561.00;;;4.50
29423;BMP180;16399;51.686;8.684;2023-01-30T08:43:31;99575.00;;;4.50
29423;BMP180;16399;51.686;8.684;2023-01-30T08:46:33;99572.00;;;4.50
29423;BMP180;16399;51.686;8.684;2023-01-30T08:49:35;99568.00;;;4.60
29423;BMP180;16399;51.686;8.684;2023-01-30T08:52:37;99575.00;;;4.80
29423;BMP180;16399;51.686;8.684;2023-01-30T08:55:40;99567.00;;;5.00
29423;BMP180;16399;51.686;8.684;2023-01-30T08:58:42;99554.00;;;5.10
29423;BMP180;16399;51.686;8.684;2023-01-30T09:01:46;99571.00;;;5.10
29423;BMP180;16399;51.686;8.684;2023-01-30T09:04:48;99577.00;;;5.10
29423;BMP180;16399;51.686;8.684;2023-01-30T09:07:50;99570.00;;;5.10
29423;BMP180;16399;51.686;8.684;2023-01-30T09:10:58;99561.00;;;5.20
29423;BMP180;16399;51.686;8.684;2023-01-30T09:13:58;99554.00;;;5.40
29423;BMP180;16399;51.686;8.684;2023-01-30T09:17:01;99552.00;;;5.50
29423;BMP180;16399;51.686;8.684;2023-01-30T09:20:05;99547.00;;;5.50
29423;BMP180;16399;51.686;8.684;2023-01-30T09:23:08;99551.00;;;5.60
29423;BMP180;16399;51.686;8.684;2023-01-30T09:26:10;99556.00;;;5.70
29423;BMP180;16399;51.686;8.684;2023-01-30T09:29:13;99556.00;;;5.80
29423;BMP180;16399;51.686;8.684;2023-01-30T09:32:15;99561.00;;;5.80
29423;BMP180;16399;51.686;8.684;2023-01-30T09:35:18;99557.00;;;5.90
29423;BMP180;16399;51.686;8.684;2023-01-30T09:38:20;99565.00;;;5.80
29423;BMP180;16399;51.686;8.684;2023-01-30T09:44:54;99572.00;;;5.90
29423;BMP180;16399;51.686;8.684;2023-01-30T09:48:16;99564.00;;;5.90
29423;BMP180;16399;51.686;8.684;2023-01-30T09:51:33;99578.00;;;6.00
29423;BMP180;16399;51.686;8.684;2023-01-30T09:54:36;99562.00;;;5.90
29423;BMP180;16399;51.686;8.684;2023-01-30T09:57:40;99574.00;;;5.90
29423;BMP180;16399;51.686;8.684;2023-01-30T10:00:43;99581.00;;;5.80
29423;BMP180;16399;51.686;8.684;2023-01-30T10:04:04;99580.00;;;5.70
29423;BMP180;16399;51.686;8.684;2023-01-30T10:11:07;99573.00;;;5.70
29423;BMP180;16399;51.686;8.684;2023-01-30T10:13:55;99579.00;;;5.70
29423;BMP180;16399;51.686;8.684;2023-01-30T10:23:53;99573.00;;;5.60
29423;BMP180;16399;51.686;8.684;2023-01-30T10:26:53;99596.00;;;5.60
29423;BMP180;16399;51.686;8.684;2023-01-30T10:29:58;99580.00;;;5.60
29423;BMP180;16399;51.686;8.684;2023-01-30T10:33:18;99595.00;;;5.60
29423;BMP180;16399;51.686;8.684;2023-01-30T10:40:12;99590.00;;;5.60
29423;BMP180;16399;51.686;8.684;2023-01-30T10:43:28;99604.00;;;5.60
29423;BMP180;16399;51.686;8.684;2023-01-30T10:46:46;99564.00;;;5.60
29423;BMP180;16399;51.686;8.684;2023-01-30T10:49:46;99583.00;;;5.70
29423;BMP180;16399;51.686;8.684;2023-01-30T10:56:46;99563.00;;;5.90
29423;BMP180;16399;51.686;8.684;2023-01-30T11:00:00;99563.00;;;6.00
29423;BMP180;16399;51.686;8.684;2023-01-30T11:03:10;99572.00;;;6.10
29423;BMP180;16399;51.686;8.684;2023-01-30T11:06:15;99587.00;;;6.00
29423;BMP180;16399;51.686;8.684;2023-01-30T11:09:17;99604.00;;;5.90
29423;BMP180;16399;51.686;8.684;2023-01-30T11:12:20;99604.00;;;5.80
29423;BMP180;16399;51.686;8.684;2023-01-30T11:15:23;99607.00;;;5.70
29423;BMP180;16399;51.686;8.684;2023-01-30T11:18:28;99596.00;;;5.70
29423;BMP180;16399;51.686;8.684;2023-01-30T11:21:31;99583.00;;;5.70
29423;BMP180;16399;51.686;8.684;2023-01-30T11:24:41;99580.00;;;5.80
29423;BMP180;16399;51.686;8.684;2023-01-30T11:27:53;99564.00;;;5.90
29423;BMP180;16399;51.686;8.684;2023-01-30T11:30:57;99575.00;;;6.00
29423;BMP180;16399;51.686;8.684;2023-01-30T11:34:02;99573.00;;;5.90
29423;BMP180;16399;51.686;8.684;2023-01-30T11:37:31;99566.00;;;5.80
29423;BMP180;16399;51.686;8.684;2023-01-30T11:40:36;99554.00;;;5.60
29423;BMP180;16399;51.686;8.684;2023-01-30T11:43:39;99566.00;;;5.30
29423;BMP180;16399;51.686;8.684;2023-01-30T11:46:42;99571.00;;;5.10
29423;BMP180;16399;51.686;8.684;2023-01-30T11:49:47;99573.00;;;5.00
29423;BMP180;16399;51.686;8.684;2023-01-30T11:52:51;99582.00;;;5.00
29423;BMP180;16399;51.686;8.684;2023-01-30T11:55:58;99571.00;;;4.90
29423;BMP180;16399;51.686;8.684;2023-01-30T11:59:04;99589.00;;;4.90
29423;BMP180;16399;51.686;8.684;2023-01-30T12:02:24;99571.00;;;4.80
29423;BMP180;16399;51.686;8.684;2023-01-30T12:05:39;99582.00;;;4.80
29423;BMP180;16399;51.686;8.684;2023-01-30T12:08:41;99574.00;;;4.90
29423;BMP180;16399;51.686;8.684;2023-01-30T12:11:44;99566.00;;;5.00
29423;BMP180;16399;51.686;8.684;2023-01-30T12:14:48;99571.00;;;5.10
29423;BMP180;16399;51.686;8.684;2023-01-30T12:18:09;99551.00;;;5.30
29423;BMP180;16399;51.686;8.684;2023-01-30T12:24:50;99548.00;;;5.60
29423;BMP180;16399;51.686;8.684;2023-01-30T12:28:08;99539.00;;;5.80
29423;BMP180;16399;51.686;8.684;2023-01-30T12:31:08;99546.00;;;6.00
29423;BMP180;16399;51.686;8.684;2023-01-30T12:34:11;99542.00;;;6.10
29423;BMP180;16399;51.686;8.684;2023-01-30T12:37:48;99547.00;;;6.30
29423;BMP180;16399;51.686;8.684;2023-01-30T12:41:01;99553.00;;;6.50
29423;BMP180;16399;51.686;8.684;2023-01-30T12:44:47;99560.00;;;6.50
29423;BMP180;16399;51.686;8.684;2023-01-30T12:47:14;99555.00;;;6.50
29423;BMP180;16399;51.686;8.684;2023-01-30T12:50:47;99541.00;;;6.70
29423;BMP180;16399;51.686;8.684;2023-01-30T12:53:54;99544.00;;;6.80
29423;BMP180;16399;51.686;8.684;2023-01-30T13:00:23;99545.00;;;6.80
29423;BMP180;16399;51.686;8.684;2023-01-30T13:06:56;99542.00;;;6.90
29423;BMP180;16399;51.686;8.684;2023-01-30T13:10:05;99538.00;;;6.90
29423;BMP180;16399;51.686;8.684;2023-01-30T13:16:26;99551.00;;;6.90
29423;BMP180;16399;51.686;8.684;2023-01-30T13:19:51;99539.00;;;6.80
29423;BMP180;16399;51.686;8.684;2023-01-30T13:24:00;99539.00;;;6.90
29423;BMP180;16399;51.686;8.684;2023-01-30T13:26:15;99543.00;;;6.90
29423;BMP180;16399;51.686;8.684;2023-01-30T13:29:30;99561.00;;;7.00
29423;BMP180;16399;51.686;8.684;2023-01-30T13:32:47;99574.00;;;7.10
29423;BMP180;16399;51.686;8.684;2023-01-30T13:36:11;99583.00;;;7.10
29423;BMP180;16399;51.686;8.684;2023-01-30T13:39:16;99600.00;;;7.10
29423;BMP180;16399;51.686;8.684;2023-01-30T13:42:37;99608.00;;;7.00
29423;BMP180;16399;51.686;8.684;2023-01-30T13:45:41;99599.00;;;6.90
29423;BMP180;16399;51.686;8.684;2023-01-30T13:49:11;99629.00;;;6.70
29423;BMP180;16399;51.686;8.684;2023-01-30T13:52:27;99616.00;;;6.60
29423;BMP180;16399;51.686;8.684;2023-01-30T13:55:47;99635.00;;;6.50
29423;BMP180;16399;51.686;8.684;2023-01-30T13:58:58;99644.00;;;6.30
29423;BMP180;16399;51.686;8.684;2023-01-30T14:05:10;99638.00;;;6.10
29423;BMP180;16399;51.686;8.684;2023-01-30T14:08:20;99689.00;;;6.00
29423;BMP180;16399;51.686;8.684;2023-01-30T14:11:33;99697.00;;;5.80
29423;BMP180;16399;51.686;8.684;2023-01-30T14:14:36;99723.00;;;5.60
29423;BMP180;16399;51.686;8.684;2023-01-30T14:17:59;99714.00;;;5.40
29423;BMP180;16399;51.686;8.684;2023-01-30T14:21:17;99745.00;;;5.20
29423;BMP180;16399;51.686;8.684;2023-01-30T14:24:24;99752.00;;;5.00
29423;BMP180;16399;51.686;8.684;2023-01-30T14:27:27;99763.00;;;4.80
29423;BMP180;16399;51.686;8.684;2023-01-30T14:30:34;99730.00;;;4.60
29423;BMP180;16399;51.686;8.684;2023-01-30T14:33:48;99692.00;;;4.40
29423;BMP180;16399;51.686;8.684;2023-01-30T14:36:52;99736.00;;;4.50
29423;BMP180;16399;51.686;8.684;2023-01-30T14:39:56;99752.00;;;4.50
29423;BMP180;16399;51.686;8.684;2023-01-30T14:49:25;99775.00;;;4.70
29423;BMP180;16399;51.686;8.684;2023-01-30T14:52:39;99790.00;;;4.70
29423;BMP180;16399;51.686;8.684;2023-01-30T14:55:42;99798.00;;;4.70
29423;BMP180;16399;51.686;8.684;2023-01-30T14:58:57;99803.00;;;4.70
29423;BMP180;16399;51.686;8.684;2023-01-30T15:02:17;99822.00;;;4.80
29423;BMP180;16399;51.686;8.684;2023-01-30T15:08:32;99812.00;;;4.90
29423;BMP180;16399;51.686;8.684;2023-01-30T15:11:36;99844.00;;;4.90
29423;BMP180;16399;51.686;8.684;2023-01-30T15:21:43;99869.00;;;4.80
29423;BMP180;16399;51.686;8.684;2023-01-30T15:25:00;99881.00;;;4.80
29423;BMP180;16399;51.686;8.684;2023-01-30T15:28:09;99887.00;;;4.80
29423;BMP180;16399;51.686;8.684;2023-01-30T15:31:20;99893.00;;;4.80
29423;BMP180;16399;51.686;8.684;2023-01-30T15:34:28;99905.00;;;4.80
29423;BMP180;16399;51.686;8.684;2023-01-30T15:37:46;99894.00;;;4.90
29423;BMP180;16399;51.686;8.684;2023-01-30T15:40:39;99903.00;;;4.90
29423;BMP180;16399;51.686;8.684;2023-01-30T15:44:04;99909.00;;;5.00
29423;BMP180;16399;51.686;8.684;2023-01-30T15:50:12;99915.00;;;5.10
29423;BMP180;16399;51.686;8.684;2023-01-30T15:53:15;99922.00;;;5.10
29423;BMP180;16399;51.686;8.684;2023-01-30T15:56:20;99924.00;;;5.20
29423;BMP180;16399;51.686;8.684;2023-01-30T15:59:36;99926.00;;;5.20
29423;BMP180;16399;51.686;8.684;2023-01-30T16:02:41;99937.00;;;5.20
29423;BMP180;16399;51.686;8.684;2023-01-30T16:05:50;99949.00;;;5.30
29423;BMP180;16399;51.686;8.684;2023-01-30T16:08:58;99950.00;;;5.30
29423;BMP180;16399;51.686;8.684;2023-01-30T16:12:00;99965.00;;;5.40
29423;BMP180;16399;51.686;8.684;2023-01-30T16:15:03;99964.00;;;5.40
29423;BMP180;16399;51.686;8.684;2023-01-30T16:18:30;99980.00;;;5.40
29423;BMP180;16399;51.686;8.684;2023-01-30T16:21:37;99981.00;;;5.40
29423;BMP180;16399;51.686;8.684;2023-01-30T16:24:42;99970.00;;;5.50
29423;BMP180;16399;51.686;8.684;2023-01-30T16:27:47;99982.00;;;5.50
29423;BMP180;16399;51.686;8.684;2023-01-30T16:31:07;99990.00;;;5.50
29423;BMP180;16399;51.686;8.684;2023-01-30T16:34:30;99997.00;;;5.50
29423;BMP180;16399;51.686;8.684;2023-01-30T16:37:33;100003.00;;;5.50
29423;BMP180;16399;51.686;8.684;2023-01-30T16:40:45;100006.00;;;5.50
29423;BMP180;16399;51.686;8.684;2023-01-30T16:44:04;100003.00;;;5.60
29423;BMP180;16399;51.686;8.684;2023-01-30T16:47:04;100014.00;;;5.60
29423;BMP180;16399;51.686;8.684;2023-01-30T16:50:26;100005.00;;;5.60
29423;BMP180;16399;51.686;8.684;2023-01-30T16:53:30;100022.00;;;5.60
29423;BMP180;16399;51.686;8.684;2023-01-30T16:56:33;100029.00;;;5.60
29423;BMP180;16399;51.686;8.684;2023-01-30T16:59:36;100038.00;;;5.60
29423;BMP180;16399;51.686;8.684;2023-01-30T17:02:40;100045.00;;;5.60
29423;BMP180;16399;51.686;8.684;2023-01-30T17:05:42;100045.00;;;5.60
29423;BMP180;16399;51.686;8.684;2023-01-30T17:08:51;100045.00;;;5.60
29423;BMP180;16399;51.686;8.684;2023-01-30T17:11:54;100042.00;;;5.70
29423;BMP180;16399;51.686;8.684;2023-01-30T17:18:14;100056.00;;;5.60
29423;BMP180;16399;51.686;8.684;2023-01-30T17:21:18;100067.00;;;5.60
29423;BMP180;16399;51.686;8.684;2023-01-30T17:24:22;100061.00;;;5.60
29423;BMP180;16399;51.686;8.684;2023-01-30T17:27:26;100065.00;;;5.60
29423;BMP180;16399;51.686;8.684;2023-01-30T17:30:29;100065.00;;;5.70
29423;BMP180;16399;51.686;8.684;2023-01-30T17:33:32;100057.00;;;5.70
29423;BMP180;16399;51.686;8.684;2023-01-30T17:36:34;100068.00;;;5.60
29423;BMP180;16399;51.686;8.684;2023-01-30T17:39:36;100078.00;;;5.60
29423;BMP180;16399;51.686;8.684;2023-01-30T17:42:38;100079.00;;;5.60
29423;BMP180;16399;51.686;8.684;2023-01-30T17:45:41;100087.00;;;5.60
29423;BMP180;16399;51.686;8.684;2023-01-30T17:48:43;100093.00;;;5.60
29423;BMP180;16399;51.686;8.684;2023-01-30T17:51:46;100090.00;;;5.60
29423;BMP180;16399;51.686;8.684;2023-01-30T17:54:48;100099.00;;;5.60
29423;BMP180;16399;51.686;8.684;2023-01-30T17:57:51;100110.00;;;5.70
29423;BMP180;16399;51.686;8.684;2023-01-30T18:00:54;100108.00;;;5.70
29423;BMP180;16399;51.686;8.684;2023-01-30T18:03:56;100108.00;;;5.70
29423;BMP180;16399;51.686;8.684;2023-01-30T18:07:01;100097.00;;;5.70
29423;BMP180;16399;51.686;8.684;2023-01-30T18:10:05;100112.00;;;5.70
29423;BMP180;16399;51.686;8.684;2023-01-30T18:13:08;100115.00;;;5.70
29423;BMP180;16399;51.686;8.684;2023-01-30T18:16:19;100121.00;;;5.70
29423;BMP180;16399;51.686;8.684;2023-01-30T18:19:22;100121.00;;;5.70
29423;BMP180;16399;51.686;8.684;2023-01-30T18:22:24;100129.00;;;5.70
29423;BMP180;16399;51.686;8.684;2023-01-30T18:25:27;100139.00;;;5.70
29423;BMP180;16399;51.686;8.684;2023-01-30T18:28:29;100154.00;;;5.70
29423;BMP180;16399;51.686;8.684;2023-01-30T18:31:31;100167.00;;;5.60
29423;BMP180;16399;51.686;8.684;2023-01-30T18:34:34;100173.00;;;5.50
29423;BMP180;16399;51.686;8.684;2023-01-30T18:37:37;100170.00;;;5.40
29423;BMP180;16399;51.686;8.684;2023-01-30T18:40:40;100191.00;;;5.30
29423;BMP180;16399;51.686;8.684;2023-01-30T18:43:43;100185.00;;;5.30
29423;BMP180;16399;51.686;8.684;2023-01-30T18:46:47;100203.00;;;5.20
29423;BMP180;16399;51.686;8.684;2023-01-30T18:49:50;100198.00;;;5.10
29423;BMP180;16399;51.686;8.684;2023-01-30T18:52:52;100200.00;;;5.00
29423;BMP180;16399;51.686;8.684;2023-01-30T18:55:55;100194.00;;;5.00
29423;BMP180;16399;51.686;8.684;2023-01-30T18:58:58;100211.00;;;4.90
29423;BMP180;16399;51.686;8.684;2023-01-30T19:02:02;100218.00;;;4.80
29423;BMP180;16399;51.686;8.684;2023-01-30T19:05:05;100217.00;;;4.80
29423;BMP180;16399;51.686;8.684;2023-01-30T19:08:07;100225.00;;;4.70
29423;BMP180;16399;51.686;8.684;2023-01-30T19:11:16;100236.00;;;4.60
29423;BMP180;16399;51.686;8.684;2023-01-30T19:14:36;100234.00;;;4.60
29423;BMP180;16399;51.686;8.684;2023-01-30T19:17:38;100233.00;;;4.60
29423;BMP180;16399;51.686;8.684;2023-01-30T19:20:40;100234.00;;;4.60
29423;BMP180;16399;51.686;8.684;2023-01-30T19:23:43;100245.00;;;4.60